Laukaa, Finland
Kieli:  Suomi
CurCond
Päivitetty12/12/2019 21:23 
 

Lähistön Lentoasemien Säätiloja:

 

EFJY - Jyvaskyla (mil/C,) Finland
Etäisyys Sääasemalta: PKo 21km
Päivitetty: 12/12/2019 20:50
Heikkoa Lumisadetta, Pilvistä
Heikkoa Lumisadetta, Pilvistä
 Tuulen suunta EKa
Tuuli: EKa 17 km/h
Lämpötila: -1°C
Tuulen purevuus: -6°C
Kastepiste: -2°C
Ilmankosteus: 93%
Ilmanpaine: 1002 hPa
Yhteenveto: Heikkoa Lumisadetta
Pilvisyys: Pilvistä
Näkyvyys: 6 km
Pilvisyystiedot: Pilvistä 183 m
2019/12/12 18:50 EFJY 121850Z AUTO 16009KT 6000 -SN OVC006 M01/M02 Q1002
EFHA - Halli (fin-Afb), Finland
Etäisyys Sääasemalta: Lo 56km
Päivitetty: 12/12/2019 20:50
Heikkoa Lumisadetta, Kuurottaisia sateita, Pilvistä
Heikkoa Lumisadetta, Kuurottaisia sateita, Pilvistä
 Tuulen suunta EKa
Tuuli: EKa 17 km/h
Lämpötila: 0°C
Tuulen purevuus: -4°C
Kastepiste: -1°C
Ilmankosteus: 93%
Ilmanpaine: 1001 hPa
Yhteenveto: Heikkoa Lumisadetta, Kuurottaisia sateita
Pilvisyys: Pilvistä
Näkyvyys: 10 km
Pilvisyystiedot: Pilvistä 183 m
2019/12/12 18:50 EFHA 121850Z AUTO 16009KT 130V190 9999 -SHSN OVC006 M00/M01 Q1001
EFMI - Mikkeli, Finland
Etäisyys Sääasemalta: IKa 105km
Päivitetty: 12/12/2019 20:50
Heikkoa Lumisadetta, Pilvistä
Heikkoa Lumisadetta, Pilvistä
 Tuulen suunta Ka
Tuuli: Ka 13 km/h
Lämpötila: 0°C
Tuulen purevuus: -4°C
Kastepiste: -1°C
Ilmankosteus: 93%
Ilmanpaine: 1004 hPa
Yhteenveto: Heikkoa Lumisadetta
Pilvisyys: Pilvistä
Näkyvyys: 10 km
Pilvisyystiedot: Pilvistä 213 m
2019/12/12 18:50 EFMI 121850Z AUTO 13007KT 100V210 9999 -SN OVC007 M00/M01 Q1004
 
EFTP - Tampere/Pirkkala, Finland
Etäisyys Sääasemalta: Lo 135km
Päivitetty: 12/12/2019 21:20
Heikkoa Lumisadetta, Kuurottaisia sateita, Pilvistä
Heikkoa Lumisadetta, Kuurottaisia sateita, Pilvistä
 Tuulen suunta EKa
Tuuli: EKa 17 km/h
Lämpötila: 0°C
Tuulen purevuus: -4°C
Kastepiste: -1°C
Ilmankosteus: 93%
Ilmanpaine: 1000 hPa
Yhteenveto: Heikkoa Lumisadetta, Kuurottaisia sateita
Pilvisyys: Pilvistä
Näkyvyys: 8 km
Pilvisyystiedot: Pilvistä 244 m
2019/12/12 19:20 EFTP 121920Z AUTO 15009KT 8000 -SHSN OVC008 M00/M01 Q1000
EFKU - Kuopio (mil/Civ), Finland
Etäisyys Sääasemalta: Ko 146km
Päivitetty: 12/12/2019 20:50
Joitain Pilviä
Joitain Pilviä
 Tuulen suunta E
Tuuli: E 20 km/h
Lämpötila: -2°C
Tuulen purevuus: -8°C
Kastepiste: -3°C
Ilmankosteus: 93%
Ilmanpaine: 1003 hPa
Pilvisyys: Joitain Pilviä
Näkyvyys: 10 km
Pilvisyystiedot: Joitain Pilviä 305 m
2019/12/12 18:50 EFKU 121850Z AUTO 17011KT 9999 FEW010 M02/M03 Q1003
EFSI - Seinajoki-Ilmajo, Finland
Etäisyys Sääasemalta: LLu 149km
Päivitetty: 12/12/2019 20:50
Pilvistä
Pilvistä
 Tuulen suunta EKa
Tuuli: EKa 17 km/h
Lämpötila: 0°C
Tuulen purevuus: -4°C
Kastepiste: -1°C
Ilmankosteus: 93%
Ilmanpaine: 998 hPa
Pilvisyys: Pilvistä
Näkyvyys: 10 km
Pilvisyystiedot: Joitain Pilviä 274 m
Puolipilvistä 457 m
Enimmäkseen pilvistä 1158 m
Pilvistä 1372 m
2019/12/12 18:50 EFSI 121850Z AUTO 16009KT 120V200 9999 FEW009 SCT015 BKN038 OVC045 00/M01 Q0998